createdAt,value
2017-01-17T00:00:55.738Z,5.59
2017-01-17T00:01:55.751Z,5.62
2017-01-17T00:02:55.757Z,5.5
2017-01-17T00:03:55.889Z,5.59
2017-01-17T00:04:55.861Z,5.48
2017-01-17T00:05:55.930Z,5.57
2017-01-17T00:06:55.924Z,5.48
2017-01-17T00:07:55.845Z,5.57
2017-01-17T00:08:55.856Z,5.57
2017-01-17T00:09:56.012Z,5.59
2017-01-17T00:10:55.853Z,5.57
2017-01-17T00:11:55.878Z,5.48
2017-01-17T00:12:55.878Z,5.59
2017-01-17T00:13:55.884Z,5.59
2017-01-17T00:14:55.897Z,5.57
2017-01-17T00:15:56.024Z,5.59
2017-01-17T00:16:55.918Z,5.59
2017-01-17T00:17:55.932Z,5.61
2017-01-17T00:18:55.945Z,5.56
2017-01-17T00:19:55.950Z,5.59
2017-01-17T00:20:56.075Z,5.64
2017-01-17T00:21:55.974Z,5.61
2017-01-17T00:22:55.985Z,5.61
2017-01-17T00:23:55.998Z,5.54
2017-01-17T00:24:56.009Z,5.54
2017-01-17T00:25:56.022Z,5.62
2017-01-17T00:26:56.212Z,5.59
2017-01-17T00:27:56.128Z,5.54
2017-01-17T00:28:56.170Z,5.59
2017-01-17T00:29:56.067Z,5.62
2017-01-17T00:30:56.078Z,5.5
2017-01-17T00:31:56.087Z,5.51
2017-01-17T00:32:56.097Z,5.51
2017-01-17T00:33:56.108Z,5.59
2017-01-17T00:34:56.237Z,5.62
2017-01-17T00:35:56.133Z,5.56
2017-01-17T00:36:56.143Z,5.54
2017-01-17T00:37:56.154Z,5.57
2017-01-17T00:38:56.166Z,5.51
2017-01-17T00:39:56.177Z,5.5
2017-01-17T00:40:56.187Z,5.62
2017-01-17T00:41:56.199Z,5.51
2017-01-17T00:42:56.210Z,5.48
2017-01-17T00:43:56.222Z,5.62
2017-01-17T00:44:56.231Z,5.54
2017-01-17T00:45:56.244Z,5.5
2017-01-17T00:46:56.343Z,5.5
2017-01-17T00:47:56.376Z,5.56
2017-01-17T00:48:56.384Z,5.48
2017-01-17T00:49:56.356Z,5.47
2017-01-17T00:50:56.329Z,5.56
2017-01-17T00:51:56.312Z,5.57
2017-01-17T00:52:56.329Z,5.56
2017-01-17T00:53:56.336Z,5.54
2017-01-17T00:54:56.354Z,5.56
2017-01-17T00:55:56.357Z,5.53
2017-01-17T00:56:56.484Z,5.56
2017-01-17T00:57:56.505Z,5.59
2017-01-17T00:58:56.509Z,5.5
2017-01-17T00:59:56.514Z,5.54
2017-01-17T01:00:56.657Z,5.5
2017-01-17T01:01:56.508Z,5.5
2017-01-17T01:02:56.440Z,5.54
2017-01-17T01:03:56.449Z,5.53
2017-01-17T01:04:56.460Z,5.48
2017-01-17T01:05:56.471Z,5.48
2017-01-17T01:06:56.482Z,5.54
2017-01-17T01:07:56.605Z,5.51
2017-01-17T01:08:56.619Z,5.51
2017-01-17T01:09:56.517Z,5.48
2017-01-17T01:10:56.528Z,5.59
2017-01-17T01:11:56.535Z,5.51
2017-01-17T01:12:56.548Z,5.53
2017-01-17T01:13:56.639Z,5.51
2017-01-17T01:14:56.571Z,5.5
2017-01-17T01:15:56.853Z,5.48
2017-01-17T01:16:56.708Z,5.48
2017-01-17T01:17:56.606Z,5.47
2017-01-17T01:18:56.777Z,5.48
2017-01-17T01:19:56.850Z,5.53
2017-01-17T01:20:56.639Z,5.51
2017-01-17T01:21:56.651Z,5.51
2017-01-17T01:22:56.657Z,5.48
2017-01-17T01:23:56.674Z,5.48
2017-01-17T01:24:56.683Z,5.5
2017-01-17T01:25:56.694Z,5.53
2017-01-17T01:26:56.703Z,5.47
2017-01-17T01:27:56.715Z,5.53
2017-01-17T01:28:56.725Z,5.56
2017-01-17T01:29:56.739Z,5.48
2017-01-17T01:30:56.750Z,5.48
2017-01-17T01:31:56.759Z,5.51
2017-01-17T01:32:56.769Z,5.48
2017-01-17T01:33:56.783Z,5.56
2017-01-17T01:34:56.802Z,5.47
2017-01-17T01:35:56.812Z,5.44
2017-01-17T01:36:56.817Z,5.47
2017-01-17T01:37:56.829Z,5.47
2017-01-17T01:38:56.840Z,5.46
2017-01-17T01:39:56.965Z,5.41
2017-01-17T01:40:56.861Z,5.51
2017-01-17T01:41:56.873Z,5.44
2017-01-17T01:42:56.881Z,5.48
2017-01-17T01:43:56.893Z,5.48
2017-01-17T01:44:56.907Z,5.48
2017-01-17T01:45:56.918Z,5.46
2017-01-17T01:46:56.923Z,5.39
2017-01-17T01:47:56.941Z,5.44
2017-01-17T01:48:56.952Z,5.43
2017-01-17T01:49:56.963Z,5.44
2017-01-17T01:50:56.977Z,5.39
2017-01-17T01:51:56.984Z,5.44
2017-01-17T01:52:57.000Z,5.44
2017-01-17T01:53:57.012Z,5.44
2017-01-17T01:54:57.018Z,5.44
2017-01-17T01:55:57.028Z,5.43
2017-01-17T01:56:57.043Z,5.41
2017-01-17T01:57:57.163Z,5.43
2017-01-17T01:58:57.060Z,5.47
2017-01-17T01:59:57.073Z,5.38
2017-01-17T02:00:57.086Z,5.44
2017-01-17T02:01:57.097Z,5.46
2017-01-17T02:02:57.185Z,5.39
2017-01-17T02:03:57.143Z,5.44
2017-01-17T02:04:57.130Z,5.43
2017-01-17T02:05:57.136Z,5.44
2017-01-17T02:06:57.158Z,5.33
2017-01-17T02:07:57.170Z,5.46
2017-01-17T02:08:57.181Z,5.35
2017-01-17T02:09:57.184Z,5.33
2017-01-17T02:10:57.403Z,5.35
2017-01-17T02:11:57.211Z,5.35
2017-01-17T02:12:57.221Z,5.46
2017-01-17T02:13:57.234Z,5.46
2017-01-17T02:14:57.243Z,5.41
2017-01-17T02:15:57.302Z,5.3
2017-01-17T02:16:57.272Z,5.39
2017-01-17T02:17:57.278Z,5.33
2017-01-17T02:18:57.288Z,5.43
2017-01-17T02:19:57.342Z,5.46
2017-01-17T02:20:57.405Z,5.44
2017-01-17T02:21:57.323Z,5.38
2017-01-17T02:22:57.339Z,5.35
2017-01-17T02:23:57.342Z,5.41
2017-01-17T02:24:57.356Z,5.39
2017-01-17T02:25:57.365Z,5.38
2017-01-17T02:26:57.470Z,5.43
2017-01-17T02:27:57.387Z,5.35
2017-01-17T02:28:57.396Z,5.41
2017-01-17T02:29:57.410Z,5.44
2017-01-17T02:30:57.418Z,5.46
2017-01-17T02:31:57.430Z,5.5
2017-01-17T02:32:57.445Z,5.41
2017-01-17T02:33:57.454Z,5.44
2017-01-17T02:34:57.467Z,5.41
2017-01-17T02:35:57.473Z,5.5
2017-01-17T02:36:57.488Z,5.35
2017-01-17T02:37:57.498Z,5.35
2017-01-17T02:38:57.510Z,5.46
2017-01-17T02:39:57.526Z,5.43
2017-01-17T02:40:57.535Z,5.32
2017-01-17T02:41:57.547Z,5.46
2017-01-17T02:42:57.556Z,5.43
2017-01-17T02:43:57.568Z,5.35
2017-01-17T02:44:57.577Z,5.48
2017-01-17T02:45:57.587Z,5.35
2017-01-17T02:46:57.601Z,5.35
2017-01-17T02:47:57.613Z,5.35
2017-01-17T02:48:57.623Z,5.41
2017-01-17T02:49:57.636Z,5.41
2017-01-17T02:50:57.644Z,5.46
2017-01-17T02:51:57.657Z,5.44
2017-01-17T02:52:57.910Z,5.41
2017-01-17T02:53:57.674Z,5.35
2017-01-17T02:54:57.692Z,5.38
2017-01-17T02:55:57.699Z,5.5
2017-01-17T02:56:57.712Z,5.44
2017-01-17T02:57:57.727Z,5.43
2017-01-17T02:58:57.732Z,5.35
2017-01-17T02:59:57.746Z,5.35
2017-01-17T03:00:57.757Z,5.44
2017-01-17T03:01:57.769Z,5.43
2017-01-17T03:02:57.779Z,5.41
2017-01-17T03:03:57.787Z,5.33
2017-01-17T03:04:57.803Z,5.47
2017-01-17T03:05:57.814Z,5.33
2017-01-17T03:06:57.828Z,5.35
2017-01-17T03:07:57.834Z,5.36
2017-01-17T03:08:57.960Z,5.3
2017-01-17T03:09:57.972Z,5.35
2017-01-17T03:10:57.867Z,5.35
2017-01-17T03:11:57.882Z,5.3
2017-01-17T03:12:58.126Z,5.28
2017-01-17T03:13:57.902Z,5.3
2017-01-17T03:14:58.046Z,5.33
2017-01-17T03:15:57.930Z,5.3
2017-01-17T03:16:58.049Z,5.35
2017-01-17T03:17:57.948Z,5.3
2017-01-17T03:18:57.958Z,5.33
2017-01-17T03:19:57.970Z,5.32
2017-01-17T03:20:58.092Z,5.36
2017-01-17T03:21:57.991Z,5.29
2017-01-17T03:22:58.120Z,5.3
2017-01-17T03:23:58.018Z,5.3
2017-01-17T03:24:58.114Z,5.36
2017-01-17T03:25:58.034Z,5.3
2017-01-17T03:26:58.043Z,5.28
2017-01-17T03:27:58.055Z,5.3
2017-01-17T03:28:58.192Z,5.33
2017-01-17T03:29:58.106Z,5.33
2017-01-17T03:30:58.089Z,5.41
2017-01-17T03:31:58.103Z,5.33
2017-01-17T03:32:58.112Z,5.36
2017-01-17T03:33:58.123Z,5.32
2017-01-17T03:34:58.138Z,5.33
2017-01-17T03:35:58.287Z,5.32
2017-01-17T03:36:58.274Z,5.28
2017-01-17T03:37:58.173Z,5.3
2017-01-17T03:38:58.181Z,5.33
2017-01-17T03:39:58.194Z,5.28
2017-01-17T03:40:58.201Z,5.28
2017-01-17T03:41:58.317Z,5.3
2017-01-17T03:42:58.226Z,5.35
2017-01-17T03:43:58.238Z,5.3
2017-01-17T03:44:58.244Z,5.35
2017-01-17T03:45:58.258Z,5.33
2017-01-17T03:46:58.318Z,5.29
2017-01-17T03:47:58.276Z,5.28
2017-01-17T03:48:58.402Z,5.38
2017-01-17T03:49:58.317Z,5.29
2017-01-17T03:50:58.319Z,5.32
2017-01-17T03:51:58.321Z,5.33
2017-01-17T03:52:58.367Z,5.36
2017-01-17T03:53:58.350Z,5.29
2017-01-17T03:54:58.422Z,5.38
2017-01-17T03:55:58.435Z,5.36
2017-01-17T03:56:58.446Z,5.36
2017-01-17T03:57:58.392Z,5.36
2017-01-17T03:58:58.847Z,5.32
2017-01-17T03:59:58.414Z,5.33
2017-01-17T04:00:58.429Z,5.33
2017-01-17T04:01:58.435Z,5.36
2017-01-17T04:02:58.449Z,5.33
2017-01-17T04:03:58.544Z,5.29
2017-01-17T04:04:58.468Z,5.36
2017-01-17T04:05:58.598Z,5.33
2017-01-17T04:06:58.490Z,5.41
2017-01-17T04:07:58.504Z,5.32
2017-01-17T04:08:58.515Z,5.38
2017-01-17T04:09:58.525Z,5.26
2017-01-17T04:10:58.535Z,5.29
2017-01-17T04:11:58.548Z,5.28
2017-01-17T04:12:58.582Z,5.29
2017-01-17T04:13:58.569Z,5.25
2017-01-17T04:14:58.580Z,5.23
2017-01-17T04:15:58.592Z,5.28
2017-01-17T04:16:58.914Z,5.23
2017-01-17T04:17:58.623Z,5.33
2017-01-17T04:18:58.628Z,5.25
2017-01-17T04:19:58.642Z,5.25
2017-01-17T04:20:58.647Z,5.2
2017-01-17T04:21:58.657Z,5.28
2017-01-17T04:22:58.673Z,5.28
2017-01-17T04:23:58.681Z,5.26
2017-01-17T04:24:58.698Z,5.23
2017-01-17T04:25:58.701Z,5.26
2017-01-17T04:26:58.717Z,5.21
2017-01-17T04:27:58.731Z,5.23
2017-01-17T04:28:58.735Z,5.25
2017-01-17T04:29:58.747Z,5.18
2017-01-17T04:30:58.757Z,5.29
2017-01-17T04:31:58.789Z,5.21
2017-01-17T04:32:58.776Z,5.23
2017-01-17T04:33:58.793Z,5.26
2017-01-17T04:34:58.804Z,5.29
2017-01-17T04:35:58.815Z,5.28
2017-01-17T04:36:58.824Z,5.25
2017-01-17T04:37:58.836Z,5.23
2017-01-17T04:38:58.851Z,5.25
2017-01-17T04:39:58.857Z,5.21
2017-01-17T04:40:58.867Z,5.28
2017-01-17T04:41:58.886Z,5.23
2017-01-17T04:42:58.896Z,5.25
2017-01-17T04:43:58.899Z,5.18
2017-01-17T04:44:58.917Z,5.21
2017-01-17T04:45:58.921Z,5.2
2017-01-17T04:46:58.936Z,5.23
2017-01-17T04:47:58.951Z,5.25
2017-01-17T04:48:58.957Z,5.17
2017-01-17T04:49:58.967Z,5.26
2017-01-17T04:50:58.977Z,5.25
2017-01-17T04:51:58.995Z,5.21
2017-01-17T04:52:59.005Z,5.2
2017-01-17T04:53:59.011Z,5.23
2017-01-17T04:54:59.020Z,5.2
2017-01-17T04:55:59.035Z,5.2
2017-01-17T04:56:59.044Z,5.18
2017-01-17T04:57:59.058Z,5.14
2017-01-17T04:58:59.068Z,5.15
2017-01-17T04:59:59.081Z,5.08
2017-01-17T05:00:59.091Z,5.14
2017-01-17T05:01:59.097Z,5.15
2017-01-17T05:02:59.112Z,5.15
2017-01-17T05:03:59.119Z,5.12
2017-01-17T05:04:59.133Z,5.08
2017-01-17T05:05:59.147Z,5.14
2017-01-17T05:06:59.160Z,5.1
2017-01-17T05:07:59.166Z,5.1
2017-01-17T05:08:59.175Z,5.11
2017-01-17T05:09:59.186Z,5.07
2017-01-17T05:10:59.198Z,5.1
2017-01-17T05:11:59.211Z,5.07
2017-01-17T05:12:59.223Z,5.11
2017-01-17T05:13:59.236Z,5.11
2017-01-17T05:14:59.246Z,5.1
2017-01-17T05:15:59.255Z,5.07
2017-01-17T05:16:59.267Z,5.1
2017-01-17T05:17:59.279Z,5.1
2017-01-17T05:18:59.289Z,5.07
2017-01-17T05:19:59.298Z,4.99
2017-01-17T05:20:59.309Z,5
2017-01-17T05:21:59.320Z,5.05
2017-01-17T05:22:59.330Z,5.02
2017-01-17T05:23:59.339Z,5.08
2017-01-17T05:24:59.354Z,5.07
2017-01-17T05:25:59.364Z,5.08
2017-01-17T05:26:59.380Z,5.08
2017-01-17T05:27:59.386Z,5.04
2017-01-17T05:28:59.803Z,5.12
2017-01-17T05:29:59.407Z,5.1
2017-01-17T05:30:59.419Z,5.11
2017-01-17T05:31:59.427Z,5.14
2017-01-17T05:32:59.440Z,5.12
2017-01-17T05:33:59.450Z,5.11
2017-01-17T05:34:59.457Z,5.08
2017-01-17T05:35:59.470Z,5.11
2017-01-17T05:36:59.487Z,5.11
2017-01-17T05:37:59.494Z,5.07
2017-01-17T05:38:59.508Z,5.07
2017-01-17T05:39:59.515Z,5.11
2017-01-17T05:40:59.523Z,5.14
2017-01-17T05:41:59.536Z,5.1
2017-01-17T05:42:59.545Z,5.1
2017-01-17T05:43:59.565Z,5.14
2017-01-17T05:44:59.569Z,5.08
2017-01-17T05:45:59.579Z,5.14
2017-01-17T05:46:59.791Z,5.12
2017-01-17T05:47:59.608Z,5.11
2017-01-17T05:48:59.611Z,5.12
2017-01-17T05:49:59.620Z,5.07
2017-01-17T05:50:59.637Z,5.14
2017-01-17T05:51:59.646Z,5.08
2017-01-17T05:52:59.654Z,5.07
2017-01-17T05:53:59.672Z,5.14
2017-01-17T05:54:59.684Z,5.15
2017-01-17T05:55:59.691Z,5.12
2017-01-17T05:56:59.702Z,5.14
2017-01-17T05:57:59.712Z,5.14
2017-01-17T05:58:59.732Z,5.11
2017-01-17T05:59:59.735Z,5.14
2017-01-17T06:00:59.747Z,5.1
2017-01-17T06:01:59.756Z,5.07
2017-01-17T06:02:59.765Z,5.08
2017-01-17T06:03:59.781Z,5.14
2017-01-17T06:04:59.783Z,5.14
2017-01-17T06:05:59.798Z,5.11
2017-01-17T06:06:59.806Z,5.15
2017-01-17T06:07:59.820Z,5.23
2017-01-17T06:08:59.828Z,5.14
2017-01-17T06:09:59.839Z,5.2
2017-01-17T06:10:59.854Z,5.18
2017-01-17T06:11:59.867Z,5.17
2017-01-17T06:12:59.873Z,5.21
2017-01-17T06:13:59.884Z,5.2
2017-01-17T06:14:59.892Z,5.23
2017-01-17T06:15:59.908Z,5.18
2017-01-17T06:16:59.915Z,5.15
2017-01-17T06:17:59.928Z,5.21
2017-01-17T06:18:59.937Z,5.23
2017-01-17T06:19:59.944Z,5.2
2017-01-17T06:20:59.954Z,5.15
2017-01-17T06:21:59.970Z,5.23
2017-01-17T06:22:59.983Z,5.2
2017-01-17T06:23:59.994Z,5.26
2017-01-17T06:25:00.001Z,5.17
2017-01-17T06:26:00.016Z,5.2
2017-01-17T06:27:00.028Z,5.2
2017-01-17T06:28:00.034Z,5.17
2017-01-17T06:29:00.049Z,5.23
2017-01-17T06:30:00.054Z,5.15
2017-01-17T06:31:00.068Z,5.18
2017-01-17T06:32:00.084Z,5.26
2017-01-17T06:33:00.086Z,5.23
2017-01-17T06:34:00.107Z,5.26
2017-01-17T06:35:00.108Z,5.2
2017-01-17T06:36:00.119Z,5.21
2017-01-17T06:37:00.130Z,5.23
2017-01-17T06:38:00.146Z,5.15
2017-01-17T06:39:00.273Z,5.18
2017-01-17T06:40:00.168Z,5.21
2017-01-17T06:41:00.176Z,5.23
2017-01-17T06:42:00.185Z,5.26
2017-01-17T06:43:00.201Z,5.21
2017-01-17T06:44:00.213Z,5.15
2017-01-17T06:45:00.219Z,5.2
2017-01-17T06:46:00.230Z,5.25
2017-01-17T06:47:00.244Z,5.21
2017-01-17T06:48:00.253Z,5.25
2017-01-17T06:49:00.265Z,5.21
2017-01-17T06:50:00.274Z,5.3
2017-01-17T06:51:00.286Z,5.2
2017-01-17T06:52:00.295Z,5.2
2017-01-17T06:53:00.311Z,5.17
2017-01-17T06:54:00.329Z,5.25
2017-01-17T06:55:00.332Z,5.23
2017-01-17T06:56:00.342Z,5.18
2017-01-17T06:57:00.355Z,5.25
2017-01-17T06:58:00.366Z,5.21
2017-01-17T06:59:00.387Z,5.26
2017-01-17T07:00:00.380Z,5.25
2017-01-17T07:01:00.392Z,5.23
2017-01-17T07:02:00.409Z,5.26
2017-01-17T07:03:00.415Z,5.18
2017-01-17T07:04:00.452Z,5.26
2017-01-17T07:05:00.440Z,5.15
2017-01-17T07:06:00.451Z,5.26
2017-01-17T07:07:00.461Z,5.21
2017-01-17T07:08:00.482Z,5.23
2017-01-17T07:09:00.485Z,5.29
2017-01-17T07:10:00.499Z,5.23
2017-01-17T07:11:00.507Z,5.3
2017-01-17T07:12:00.515Z,5.18
2017-01-17T07:13:00.526Z,5.25
2017-01-17T07:14:00.540Z,5.17
2017-01-17T07:15:00.556Z,5.26
2017-01-17T07:16:00.562Z,5.23
2017-01-17T07:17:00.574Z,5.11
2017-01-17T07:18:00.589Z,5.26
2017-01-17T07:19:00.592Z,5.18
2017-01-17T07:20:00.605Z,5.29
2017-01-17T07:21:00.615Z,5.26
2017-01-17T07:22:00.627Z,5.17
2017-01-17T07:23:00.634Z,5.18
2017-01-17T07:24:00.651Z,5.15
2017-01-17T07:25:00.659Z,5.29
2017-01-17T07:26:00.673Z,5.2
2017-01-17T07:27:00.681Z,5.23
2017-01-17T07:28:00.692Z,5.17
2017-01-17T07:29:00.703Z,5.2
2017-01-17T07:30:00.713Z,5.25
2017-01-17T07:31:00.723Z,5.18
2017-01-17T07:32:00.741Z,5.23
2017-01-17T07:33:00.747Z,5.14
2017-01-17T07:34:00.756Z,5.17
2017-01-17T07:35:00.770Z,5.15
2017-01-17T07:36:00.787Z,5.15
2017-01-17T07:37:00.788Z,5.23
2017-01-17T07:38:00.805Z,5.17
2017-01-17T07:39:00.810Z,5.23
2017-01-17T07:40:00.830Z,5.25
2017-01-17T07:41:00.834Z,5.17
2017-01-17T07:42:00.844Z,5.23
2017-01-17T07:43:00.857Z,5.26
2017-01-17T07:44:00.868Z,5.25
2017-01-17T07:45:00.879Z,5.18
2017-01-17T07:46:00.893Z,5.26
2017-01-17T07:47:00.905Z,5.23
2017-01-17T07:48:00.920Z,5.28
2017-01-17T07:49:00.929Z,5.26
2017-01-17T07:50:00.933Z,5.21
2017-01-17T07:51:00.942Z,5.3
2017-01-17T07:52:00.955Z,5.29
2017-01-17T07:53:00.968Z,5.29
2017-01-17T07:54:00.982Z,5.32
2017-01-17T07:55:00.985Z,5.32
2017-01-17T07:56:00.994Z,5.35
2017-01-17T07:57:01.007Z,5.32
2017-01-17T07:58:01.018Z,5.32
2017-01-17T07:59:01.033Z,5.33
2017-01-17T08:00:01.044Z,5.32
2017-01-17T08:01:01.053Z,5.36
2017-01-17T08:02:01.069Z,5.33
2017-01-17T08:03:01.076Z,5.36
2017-01-17T08:04:01.087Z,5.29
2017-01-17T08:05:01.101Z,5.39
2017-01-17T08:06:01.115Z,5.29
2017-01-17T08:07:01.120Z,5.38
2017-01-17T08:08:01.133Z,5.32
2017-01-17T08:09:01.141Z,5.33
2017-01-17T08:10:01.149Z,5.36
2017-01-17T08:11:01.164Z,5.3
2017-01-17T08:12:01.316Z,5.33
2017-01-17T08:13:01.423Z,5.38
2017-01-17T08:14:01.455Z,5.41
2017-01-17T08:15:01.693Z,5.36
2017-01-17T08:16:01.582Z,5.32
2017-01-17T08:17:01.233Z,5.35
2017-01-17T08:18:01.672Z,5.41
2017-01-17T08:19:01.432Z,5.41
2017-01-17T08:20:01.433Z,5.39
2017-01-17T08:21:01.275Z,5.35
2017-01-17T08:22:01.293Z,5.43
2017-01-17T08:23:01.299Z,5.5
2017-01-17T08:24:01.312Z,5.39
2017-01-17T08:25:01.339Z,5.39
2017-01-17T08:26:01.328Z,5.44
2017-01-17T08:27:01.344Z,5.44
2017-01-17T08:28:01.352Z,5.41
2017-01-17T08:29:01.358Z,5.44
2017-01-17T08:30:01.374Z,5.43
2017-01-17T08:31:01.382Z,5.43
2017-01-17T08:32:01.393Z,5.43
2017-01-17T08:33:01.408Z,5.44
2017-01-17T08:34:01.415Z,5.43
2017-01-17T08:35:01.425Z,5.44
2017-01-17T08:36:01.445Z,5.44
2017-01-17T08:37:01.452Z,5.39
2017-01-17T08:38:01.460Z,5.43
2017-01-17T08:39:01.474Z,5.39
2017-01-17T08:40:01.480Z,5.44
2017-01-17T08:41:01.494Z,5.38
2017-01-17T08:42:01.506Z,5.44
2017-01-17T08:43:01.520Z,5.44
2017-01-17T08:44:01.525Z,5.39
2017-01-17T08:45:01.538Z,5.5
2017-01-17T08:46:01.551Z,5.41
2017-01-17T08:47:01.558Z,5.44
2017-01-17T08:48:01.568Z,5.41
2017-01-17T08:49:01.583Z,5.44
2017-01-17T08:50:01.595Z,5.39
2017-01-17T08:51:01.608Z,5.46
2017-01-17T08:52:01.617Z,5.41
2017-01-17T08:53:01.626Z,5.38
2017-01-17T08:54:01.643Z,5.47
2017-01-17T08:55:01.648Z,5.44
2017-01-17T08:56:01.660Z,5.5
2017-01-17T08:57:01.670Z,5.43
2017-01-17T08:58:01.682Z,5.48
2017-01-17T08:59:02.095Z,5.39
2017-01-17T09:00:01.706Z,5.5
2017-01-17T09:01:01.720Z,5.47
2017-01-17T09:02:01.723Z,5.43
2017-01-17T09:03:01.738Z,5.48
2017-01-17T09:04:01.760Z,5.54
2017-01-17T09:05:01.766Z,5.48
2017-01-17T09:06:01.776Z,5.48
2017-01-17T09:07:01.785Z,5.53
2017-01-17T09:08:01.794Z,5.48
2017-01-17T09:09:01.806Z,5.51
2017-01-17T09:10:01.815Z,5.51
2017-01-17T09:11:01.826Z,5.56
2017-01-17T09:12:01.840Z,5.5
2017-01-17T09:13:01.848Z,5.5
2017-01-17T09:14:01.875Z,5.56
2017-01-17T09:15:01.875Z,5.48
2017-01-17T09:16:01.884Z,5.5
2017-01-17T09:17:01.893Z,5.57
2017-01-17T09:18:01.905Z,5.5
2017-01-17T09:19:01.922Z,5.47
2017-01-17T09:20:01.928Z,5.53
2017-01-17T09:21:01.937Z,5.5
2017-01-17T09:22:01.954Z,5.51
2017-01-17T09:23:01.960Z,5.48
2017-01-17T09:24:01.973Z,5.47
2017-01-17T09:25:01.986Z,5.47
2017-01-17T09:26:02.005Z,5.57
2017-01-17T09:27:02.009Z,5.54
2017-01-17T09:28:02.020Z,5.59
2017-01-17T09:29:02.027Z,5.64
2017-01-17T09:30:02.061Z,5.68
2017-01-17T09:31:02.053Z,5.65
2017-01-17T09:32:02.061Z,5.62
2017-01-17T09:33:02.156Z,5.69
2017-01-17T09:34:02.109Z,5.64
2017-01-17T09:35:02.097Z,5.68
2017-01-17T09:36:02.221Z,5.68
2017-01-17T09:37:02.117Z,5.64
2017-01-17T09:38:02.127Z,5.62
2017-01-17T09:39:02.152Z,5.59
2017-01-17T09:40:02.174Z,5.68
2017-01-17T09:41:02.278Z,5.69
2017-01-17T09:42:02.193Z,5.65
2017-01-17T09:43:02.188Z,5.71
2017-01-17T09:44:02.202Z,5.69
2017-01-17T09:45:02.210Z,5.72
2017-01-17T09:46:02.228Z,5.69
2017-01-17T09:47:02.237Z,5.72
2017-01-17T09:48:02.248Z,5.71
2017-01-17T09:49:02.283Z,5.71
2017-01-17T09:50:02.269Z,5.76
2017-01-17T09:51:02.284Z,5.75
2017-01-17T09:52:02.416Z,5.76
2017-01-17T09:53:02.296Z,5.79
2017-01-17T09:54:02.434Z,5.79
2017-01-17T09:55:02.321Z,5.8
2017-01-17T09:56:02.557Z,5.76
2017-01-17T09:57:02.462Z,5.82
2017-01-17T09:58:02.366Z,5.84
2017-01-17T09:59:02.371Z,5.76
2017-01-17T10:00:02.781Z,5.8
2017-01-17T10:01:02.534Z,5.84
2017-01-17T10:02:02.399Z,5.76
2017-01-17T10:03:02.415Z,5.9
2017-01-17T10:04:02.538Z,5.87
2017-01-17T10:05:02.433Z,5.82
2017-01-17T10:06:02.580Z,5.86
2017-01-17T10:07:02.461Z,5.9
2017-01-17T10:08:02.589Z,5.89
2017-01-17T10:09:02.488Z,5.89
2017-01-17T10:10:02.528Z,5.91
2017-01-17T10:11:02.510Z,5.94
2017-01-17T10:12:02.513Z,5.93
2017-01-17T10:13:02.526Z,5.87
2017-01-17T10:14:02.557Z,5.87
2017-01-17T10:15:02.549Z,5.9
2017-01-17T10:16:02.791Z,5.86
2017-01-17T10:17:02.566Z,5.91
2017-01-17T10:18:02.584Z,5.93
2017-01-17T10:19:02.596Z,5.94
2017-01-17T10:20:02.709Z,5.84
2017-01-17T10:21:02.620Z,5.93
2017-01-17T10:22:02.650Z,5.97
2017-01-17T10:23:02.646Z,5.94
2017-01-17T10:24:02.649Z,5.98
2017-01-17T10:25:02.776Z,5.93
2017-01-17T10:26:02.672Z,5.99
2017-01-17T10:27:02.683Z,5.97
2017-01-17T10:28:02.708Z,5.89
2017-01-17T10:29:02.712Z,5.94
2017-01-17T10:30:02.728Z,5.94
2017-01-17T10:31:02.730Z,5.98
2017-01-17T10:32:02.741Z,5.98
2017-01-17T10:33:02.757Z,5.99
2017-01-17T10:34:02.770Z,6.04
2017-01-17T10:35:02.775Z,6.09
2017-01-17T10:36:02.809Z,6.11
2017-01-17T10:37:02.801Z,6.07
2017-01-17T10:38:02.828Z,6.12
2017-01-17T10:39:02.827Z,6.17
2017-01-17T10:40:02.834Z,6.14
2017-01-17T10:41:02.849Z,6.16
2017-01-17T10:42:02.855Z,6.16
2017-01-17T10:43:03.265Z,6.17
2017-01-17T10:44:02.905Z,6.12
2017-01-17T10:45:02.898Z,6.08
2017-01-17T10:46:02.927Z,6.12
2017-01-17T10:47:02.927Z,6.11
2017-01-17T10:48:02.929Z,6.08
2017-01-17T10:49:02.940Z,6.05
2017-01-17T10:50:02.956Z,6.05
2017-01-17T10:51:02.964Z,6.02
2017-01-17T10:52:02.989Z,6.04
2017-01-17T10:53:02.987Z,6.14
2017-01-17T10:54:02.999Z,6.04
2017-01-17T10:55:03.006Z,6.07
2017-01-17T10:56:03.026Z,6.04
2017-01-17T10:57:03.030Z,6.04
2017-01-17T10:58:03.061Z,6.08
2017-01-17T10:59:03.053Z,6.05
2017-01-17T11:00:03.074Z,6.04
2017-01-17T11:01:03.079Z,6.04
2017-01-17T11:02:03.091Z,6.05
2017-01-17T11:03:03.099Z,6.07
2017-01-17T11:04:03.134Z,6.07
2017-01-17T11:05:03.125Z,6.12
2017-01-17T11:06:03.141Z,6.2
2017-01-17T11:07:03.181Z,6.2
2017-01-17T11:08:03.167Z,6.14
2017-01-17T11:09:03.168Z,6.16
2017-01-17T11:10:03.181Z,6.12
2017-01-17T11:11:03.194Z,6.11
2017-01-17T11:12:03.211Z,6.16
2017-01-17T11:13:03.224Z,6.17
2017-01-17T11:14:03.236Z,6.17
2017-01-17T11:15:03.241Z,6.14
2017-01-17T11:16:03.258Z,6.12
2017-01-17T11:17:03.261Z,6.12
2017-01-17T11:18:03.287Z,6.16
2017-01-17T11:19:03.287Z,6.17
2017-01-17T11:20:03.314Z,6.09
2017-01-17T11:21:03.311Z,6.17
2017-01-17T11:22:03.330Z,6.17
2017-01-17T11:23:03.336Z,6.24
2017-01-17T11:24:03.346Z,6.19
2017-01-17T11:25:03.361Z,6.19
2017-01-17T11:26:03.765Z,6.16
2017-01-17T11:27:03.381Z,6.19
2017-01-17T11:28:03.396Z,6.2
2017-01-17T11:29:03.403Z,6.17
2017-01-17T11:30:03.420Z,6.2
2017-01-17T11:31:03.429Z,6.16
2017-01-17T11:32:03.439Z,6.2
2017-01-17T11:33:03.477Z,6.17
2017-01-17T11:34:03.464Z,6.17
2017-01-17T11:35:03.475Z,6.17
2017-01-17T11:36:03.487Z,6.14
2017-01-17T11:37:03.496Z,6.14
2017-01-17T11:38:03.519Z,6.28
2017-01-17T11:39:03.519Z,6.26
2017-01-17T11:40:03.530Z,6.26
2017-01-17T11:41:03.546Z,6.24
2017-01-17T11:42:03.575Z,6.22
2017-01-17T11:43:03.566Z,6.24
2017-01-17T11:44:03.579Z,6.26
2017-01-17T11:45:03.589Z,6.14
2017-01-17T11:46:03.605Z,6.14
2017-01-17T11:47:03.621Z,6.14
2017-01-17T11:48:03.627Z,6.2
2017-01-17T11:49:03.638Z,6.26
2017-01-17T11:50:03.695Z,6.28
2017-01-17T11:51:03.663Z,6.24
2017-01-17T11:52:03.675Z,6.31
2017-01-17T11:53:03.689Z,6.24
2017-01-17T11:54:03.694Z,6.24
2017-01-17T11:55:03.713Z,6.24
2017-01-17T11:56:03.716Z,6.28
2017-01-17T11:57:03.734Z,6.28
2017-01-17T11:58:04.136Z,6.24
2017-01-17T11:59:03.758Z,6.35
2017-01-17T12:00:03.770Z,6.26
2017-01-17T12:01:03.782Z,6.26
2017-01-17T12:02:03.790Z,6.3
2017-01-17T12:03:03.800Z,6.3
2017-01-17T12:04:03.810Z,6.26
2017-01-17T12:05:03.826Z,6.24
2017-01-17T12:06:03.836Z,6.22
2017-01-17T12:07:03.849Z,6.27
2017-01-17T12:08:03.863Z,6.26
2017-01-17T12:09:03.872Z,6.31
2017-01-17T12:10:03.888Z,6.22
2017-01-17T12:11:03.913Z,6.28
2017-01-17T12:12:03.938Z,6.27
2017-01-17T12:13:03.921Z,6.26
2017-01-17T12:14:03.933Z,6.33
2017-01-17T12:15:03.945Z,6.31
2017-01-17T12:16:03.958Z,6.33
2017-01-17T12:17:03.968Z,6.38
2017-01-17T12:18:03.975Z,6.31
2017-01-17T12:19:04.025Z,6.39
2017-01-17T12:20:04.000Z,6.38
2017-01-17T12:21:04.016Z,6.33
2017-01-17T12:22:04.026Z,6.33
2017-01-17T12:23:04.039Z,6.33
2017-01-17T12:24:04.050Z,6.41
2017-01-17T12:25:04.062Z,6.48
2017-01-17T12:26:04.073Z,6.39
2017-01-17T12:27:04.086Z,6.44
2017-01-17T12:28:04.100Z,6.54
2017-01-17T12:29:04.110Z,6.46
2017-01-17T12:30:04.117Z,6.49
2017-01-17T12:31:04.133Z,6.49
2017-01-17T12:32:04.145Z,6.44
2017-01-17T12:33:04.156Z,6.54
2017-01-17T12:34:04.167Z,6.49
2017-01-17T12:35:04.180Z,6.54
2017-01-17T12:36:04.191Z,6.51
2017-01-17T12:37:04.599Z,6.57
2017-01-17T12:38:04.222Z,6.59
2017-01-17T12:39:04.257Z,6.57
2017-01-17T12:40:04.240Z,6.49
2017-01-17T12:41:04.252Z,6.57
2017-01-17T12:42:04.264Z,6.57
2017-01-17T12:43:04.274Z,6.51
2017-01-17T12:44:04.289Z,6.48
2017-01-17T12:45:04.298Z,6.51
2017-01-17T12:46:04.308Z,6.48
2017-01-17T12:47:04.330Z,6.48
2017-01-17T12:48:04.337Z,6.52
2017-01-17T12:49:04.348Z,6.48
2017-01-17T12:50:04.390Z,6.46
2017-01-17T12:51:04.372Z,6.48
2017-01-17T12:52:04.395Z,6.49
2017-01-17T12:53:04.393Z,6.42
2017-01-17T12:54:04.418Z,6.46
2017-01-17T12:55:04.421Z,6.46
2017-01-17T12:56:04.427Z,6.44
2017-01-17T12:57:04.439Z,6.48
2017-01-17T12:58:04.474Z,6.52
2017-01-17T12:59:04.468Z,6.54
2017-01-17T13:00:04.476Z,6.42
2017-01-17T13:01:04.884Z,6.48
2017-01-17T13:02:04.496Z,6.44
2017-01-17T13:03:04.531Z,6.46
2017-01-17T13:04:04.524Z,6.45
2017-01-17T13:05:04.534Z,6.42
2017-01-17T13:06:04.544Z,6.46
2017-01-17T13:07:04.560Z,6.33
2017-01-17T13:08:04.568Z,6.46
2017-01-17T13:09:04.585Z,6.41
2017-01-17T13:10:04.593Z,6.33
2017-01-17T13:11:04.604Z,6.49
2017-01-17T13:12:04.636Z,6.36
2017-01-17T13:13:04.640Z,6.33
2017-01-17T13:14:04.642Z,6.42
2017-01-17T13:15:04.651Z,6.33
2017-01-17T13:16:04.684Z,6.42
2017-01-17T13:17:04.675Z,6.31
2017-01-17T13:18:04.691Z,6.33
2017-01-17T13:19:05.103Z,6.36
2017-01-17T13:20:04.790Z,6.33
2017-01-17T13:21:04.733Z,6.31
2017-01-17T13:22:05.127Z,6.39